< < Back
Terminal Aerodrome Forecast


Current Version              Previous Versions:   1  2  3  4  5  6  7  8  9  

Terminal Aerodrome Forecast

931
FTUS42 KCAE 282327
TAFCAE
TAF
KCAE 282327Z 2900/2924 23008KT P6SM SCT060
     FM290400 VRB03KT P6SM SKC
     FM291500 33006KT P6SM SCT250=

Latest METAR

763
SAUS80 KWBC 291400
MTRCAE
METAR KCAE 291356Z 03006KT 10SM FEW200 27/14 A2998 RMK AO2 SLP149
T02670139


USA.gov is the U.S. government's official web portal to all federal, state and local government web resources and services.